sensor_id;sensor_type;location;lat;lon;timestamp;temperature;humidity
65989;HTU21D;53592;51.402;6.054;2022-11-20T00:00:04;3.47;68.91
65989;HTU21D;53592;51.402;6.054;2022-11-20T00:02:29;3.41;69.10
65989;HTU21D;53592;51.402;6.054;2022-11-20T00:04:55;3.42;69.42
65989;HTU21D;53592;51.402;6.054;2022-11-20T00:07:20;3.52;69.05
65989;HTU21D;53592;51.402;6.054;2022-11-20T00:09:46;3.47;68.75
65989;HTU21D;53592;51.402;6.054;2022-11-20T00:12:11;3.50;69.65
65989;HTU21D;53592;51.402;6.054;2022-11-20T00:14:37;3.57;69.53
65989;HTU21D;53592;51.402;6.054;2022-11-20T00:17:02;3.63;69.45
65989;HTU21D;53592;51.402;6.054;2022-11-20T00:19:28;3.65;69.09
65989;HTU21D;53592;51.402;6.054;2022-11-20T00:21:53;3.62;68.96
65989;HTU21D;53592;51.402;6.054;2022-11-20T00:24:20;3.62;68.43
65989;HTU21D;53592;51.402;6.054;2022-11-20T00:26:46;3.54;68.35
65989;HTU21D;53592;51.402;6.054;2022-11-20T00:29:11;3.52;69.12
65989;HTU21D;53592;51.402;6.054;2022-11-20T00:31:37;3.55;69.47
65989;HTU21D;53592;51.402;6.054;2022-11-20T00:34:02;3.54;69.44
65989;HTU21D;53592;51.402;6.054;2022-11-20T00:36:32;3.45;69.48
65989;HTU21D;53592;51.402;6.054;2022-11-20T00:38:58;3.43;69.49
65989;HTU21D;53592;51.402;6.054;2022-11-20T00:41:25;3.46;69.90
65989;HTU21D;53592;51.402;6.054;2022-11-20T00:43:53;3.52;69.97
65989;HTU21D;53592;51.402;6.054;2022-11-20T00:46:21;3.47;70.10
65989;HTU21D;53592;51.402;6.054;2022-11-20T00:48:47;3.41;69.31
65989;HTU21D;53592;51.402;6.054;2022-11-20T00:51:15;3.30;69.30
65989;HTU21D;53592;51.402;6.054;2022-11-20T00:53:41;3.29;69.03
65989;HTU21D;53592;51.402;6.054;2022-11-20T00:56:11;3.13;69.08
65989;HTU21D;53592;51.402;6.054;2022-11-20T00:58:38;3.02;69.59
65989;HTU21D;53592;51.402;6.054;2022-11-20T01:01:10;2.98;70.17
65989;HTU21D;53592;51.402;6.054;2022-11-20T01:03:38;2.99;70.41
65989;HTU21D;53592;51.402;6.054;2022-11-20T01:06:09;2.99;70.46
65989;HTU21D;53592;51.402;6.054;2022-11-20T01:08:35;3.01;70.73
65989;HTU21D;53592;51.402;6.054;2022-11-20T01:11:11;3.01;70.56
65989;HTU21D;53592;51.402;6.054;2022-11-20T01:13:37;3.01;71.09
65989;HTU21D;53592;51.402;6.054;2022-11-20T01:16:08;2.97;71.06
65989;HTU21D;53592;51.402;6.054;2022-11-20T01:18:35;2.91;71.31
65989;HTU21D;53592;51.402;6.054;2022-11-20T01:21:11;2.90;71.55
65989;HTU21D;53592;51.402;6.054;2022-11-20T01:23:39;2.85;71.84
65989;HTU21D;53592;51.402;6.054;2022-11-20T01:26:10;2.84;71.83
65989;HTU21D;53592;51.402;6.054;2022-11-20T01:28:38;2.85;71.90
65989;HTU21D;53592;51.402;6.054;2022-11-20T01:31:15;2.88;71.93
65989;HTU21D;53592;51.402;6.054;2022-11-20T01:33:42;2.91;71.67
65989;HTU21D;53592;51.402;6.054;2022-11-20T01:36:09;2.95;71.73
65989;HTU21D;53592;51.402;6.054;2022-11-20T01:38:35;2.89;71.18
65989;HTU21D;53592;51.402;6.054;2022-11-20T01:41:00;2.80;71.36
65989;HTU21D;53592;51.402;6.054;2022-11-20T01:43:26;2.76;71.74
65989;HTU21D;53592;51.402;6.054;2022-11-20T01:46:18;2.64;71.77
65989;HTU21D;53592;51.402;6.054;2022-11-20T01:48:54;2.46;72.33
65989;HTU21D;53592;51.402;6.054;2022-11-20T01:51:41;2.43;73.26
65989;HTU21D;53592;51.402;6.054;2022-11-20T01:54:15;2.49;73.44
65989;HTU21D;53592;51.402;6.054;2022-11-20T01:56:44;2.54;72.98
65989;HTU21D;53592;51.402;6.054;2022-11-20T01:59:15;2.51;73.28
65989;HTU21D;53592;51.402;6.054;2022-11-20T02:01:41;2.55;73.15
65989;HTU21D;53592;51.402;6.054;2022-11-20T02:04:08;2.54;73.04
65989;HTU21D;53592;51.402;6.054;2022-11-20T02:06:45;2.53;73.06
65989;HTU21D;53592;51.402;6.054;2022-11-20T02:09:11;2.55;73.09
65989;HTU21D;53592;51.402;6.054;2022-11-20T02:11:37;2.53;73.05
65989;HTU21D;53592;51.402;6.054;2022-11-20T02:14:03;2.53;73.28
65989;HTU21D;53592;51.402;6.054;2022-11-20T02:16:32;2.51;73.33
65989;HTU21D;53592;51.402;6.054;2022-11-20T02:19:00;2.50;73.43
65989;HTU21D;53592;51.402;6.054;2022-11-20T02:24:03;2.45;73.73
65989;HTU21D;53592;51.402;6.054;2022-11-20T02:26:33;2.46;73.70
65989;HTU21D;53592;51.402;6.054;2022-11-20T02:29:01;2.43;73.53
65989;HTU21D;53592;51.402;6.054;2022-11-20T02:31:27;2.36;73.34
65989;HTU21D;53592;51.402;6.054;2022-11-20T02:33:57;2.36;73.61
65989;HTU21D;53592;51.402;6.054;2022-11-20T02:36:26;2.34;73.44
65989;HTU21D;53592;51.402;6.054;2022-11-20T02:38:53;2.31;73.35
65989;HTU21D;53592;51.402;6.054;2022-11-20T02:41:19;2.30;73.56
65989;HTU21D;53592;51.402;6.054;2022-11-20T02:43:44;2.36;73.73
65989;HTU21D;53592;51.402;6.054;2022-11-20T02:46:10;2.38;73.48
65989;HTU21D;53592;51.402;6.054;2022-11-20T02:48:36;2.34;73.51
65989;HTU21D;53592;51.402;6.054;2022-11-20T02:51:01;2.26;73.55
65989;HTU21D;53592;51.402;6.054;2022-11-20T02:53:27;2.20;73.92
65989;HTU21D;53592;51.402;6.054;2022-11-20T02:55:52;2.19;74.47
65989;HTU21D;53592;51.402;6.054;2022-11-20T02:58:18;2.17;74.77
65989;HTU21D;53592;51.402;6.054;2022-11-20T03:00:43;2.21;74.80
65989;HTU21D;53592;51.402;6.054;2022-11-20T03:03:09;2.24;74.83
65989;HTU21D;53592;51.402;6.054;2022-11-20T03:05:34;2.31;74.86
65989;HTU21D;53592;51.402;6.054;2022-11-20T03:08:00;2.34;74.97
65989;HTU21D;53592;51.402;6.054;2022-11-20T03:10:25;2.38;74.66
65989;HTU21D;53592;51.402;6.054;2022-11-20T03:12:55;2.42;74.71
65989;HTU21D;53592;51.402;6.054;2022-11-20T03:15:24;2.45;74.71
65989;HTU21D;53592;51.402;6.054;2022-11-20T03:17:53;2.46;74.44
65989;HTU21D;53592;51.402;6.054;2022-11-20T03:20:20;2.41;74.71
65989;HTU21D;53592;51.402;6.054;2022-11-20T03:22:45;2.40;74.57
65989;HTU21D;53592;51.402;6.054;2022-11-20T03:25:10;2.44;74.83
65989;HTU21D;53592;51.402;6.054;2022-11-20T03:27:36;2.44;74.58
65989;HTU21D;53592;51.402;6.054;2022-11-20T03:30:02;2.41;74.86
65989;HTU21D;53592;51.402;6.054;2022-11-20T03:32:28;2.42;74.68
65989;HTU21D;53592;51.402;6.054;2022-11-20T03:34:53;2.43;74.97
65989;HTU21D;53592;51.402;6.054;2022-11-20T03:37:19;2.39;74.67
65989;HTU21D;53592;51.402;6.054;2022-11-20T03:39:44;2.30;74.45
65989;HTU21D;53592;51.402;6.054;2022-11-20T03:42:10;2.23;74.97
65989;HTU21D;53592;51.402;6.054;2022-11-20T03:44:54;2.26;75.18
65989;HTU21D;53592;51.402;6.054;2022-11-20T03:47:20;2.21;75.40
65989;HTU21D;53592;51.402;6.054;2022-11-20T03:49:45;2.20;75.85
65989;HTU21D;53592;51.402;6.054;2022-11-20T03:52:10;2.21;75.59
65989;HTU21D;53592;51.402;6.054;2022-11-20T03:54:36;2.19;75.63
65989;HTU21D;53592;51.402;6.054;2022-11-20T03:57:01;2.16;75.63
65989;HTU21D;53592;51.402;6.054;2022-11-20T03:59:27;2.22;75.89
65989;HTU21D;53592;51.402;6.054;2022-11-20T04:01:52;2.32;75.67
65989;HTU21D;53592;51.402;6.054;2022-11-20T04:04:18;2.24;75.21
65989;HTU21D;53592;51.402;6.054;2022-11-20T04:06:44;2.20;75.28
65989;HTU21D;53592;51.402;6.054;2022-11-20T04:09:09;2.26;75.59
65989;HTU21D;53592;51.402;6.054;2022-11-20T04:11:37;2.29;75.33
65989;HTU21D;53592;51.402;6.054;2022-11-20T04:14:05;2.23;75.26
65989;HTU21D;53592;51.402;6.054;2022-11-20T04:16:34;2.34;75.52
65989;HTU21D;53592;51.402;6.054;2022-11-20T04:19:02;2.39;75.56
65989;HTU21D;53592;51.402;6.054;2022-11-20T04:21:28;2.40;75.30
65989;HTU21D;53592;51.402;6.054;2022-11-20T04:23:55;2.38;75.40
65989;HTU21D;53592;51.402;6.054;2022-11-20T04:26:23;2.43;75.48
65989;HTU21D;53592;51.402;6.054;2022-11-20T04:28:48;2.41;75.52
65989;HTU21D;53592;51.402;6.054;2022-11-20T04:31:16;2.40;75.09
65989;HTU21D;53592;51.402;6.054;2022-11-20T04:33:43;2.40;74.89
65989;HTU21D;53592;51.402;6.054;2022-11-20T04:36:17;2.40;75.24
65989;HTU21D;53592;51.402;6.054;2022-11-20T04:38:43;2.46;75.09
65989;HTU21D;53592;51.402;6.054;2022-11-20T04:41:15;2.52;74.98
65989;HTU21D;53592;51.402;6.054;2022-11-20T04:43:41;2.57;74.99
65989;HTU21D;53592;51.402;6.054;2022-11-20T04:46:06;2.59;75.28
65989;HTU21D;53592;51.402;6.054;2022-11-20T04:48:32;2.62;75.25
65989;HTU21D;53592;51.402;6.054;2022-11-20T04:51:03;2.65;75.31
65989;HTU21D;53592;51.402;6.054;2022-11-20T04:53:29;2.70;75.40
65989;HTU21D;53592;51.402;6.054;2022-11-20T04:56:02;2.71;75.38
65989;HTU21D;53592;51.402;6.054;2022-11-20T04:58:28;2.71;75.63
65989;HTU21D;53592;51.402;6.054;2022-11-20T05:01:03;2.71;75.73
65989;HTU21D;53592;51.402;6.054;2022-11-20T05:03:29;2.73;75.72
65989;HTU21D;53592;51.402;6.054;2022-11-20T05:05:55;2.71;75.83
65989;HTU21D;53592;51.402;6.054;2022-11-20T05:08:21;2.71;75.86
65989;HTU21D;53592;51.402;6.054;2022-11-20T05:10:46;2.73;76.01
65989;HTU21D;53592;51.402;6.054;2022-11-20T05:13:12;2.75;75.81
65989;HTU21D;53592;51.402;6.054;2022-11-20T05:15:37;2.75;75.53
65989;HTU21D;53592;51.402;6.054;2022-11-20T05:18:02;2.80;75.63
65989;HTU21D;53592;51.402;6.054;2022-11-20T05:20:28;2.85;75.61
65989;HTU21D;53592;51.402;6.054;2022-11-20T05:22:56;2.87;75.45
65989;HTU21D;53592;51.402;6.054;2022-11-20T05:25:22;2.83;75.53
65989;HTU21D;53592;51.402;6.054;2022-11-20T05:27:48;2.84;75.70
65989;HTU21D;53592;51.402;6.054;2022-11-20T05:30:13;2.86;75.59
65989;HTU21D;53592;51.402;6.054;2022-11-20T05:32:39;2.82;75.54
65989;HTU21D;53592;51.402;6.054;2022-11-20T05:35:05;2.85;75.53
65989;HTU21D;53592;51.402;6.054;2022-11-20T05:37:30;2.82;75.57
65989;HTU21D;53592;51.402;6.054;2022-11-20T05:39:56;2.82;75.60
65989;HTU21D;53592;51.402;6.054;2022-11-20T05:42:21;2.78;75.77
65989;HTU21D;53592;51.402;6.054;2022-11-20T05:44:59;2.82;75.69
65989;HTU21D;53592;51.402;6.054;2022-11-20T05:47:26;2.72;75.67
65989;HTU21D;53592;51.402;6.054;2022-11-20T05:49:52;2.74;75.77
65989;HTU21D;53592;51.402;6.054;2022-11-20T05:52:17;2.70;75.99
65989;HTU21D;53592;51.402;6.054;2022-11-20T05:54:43;2.76;76.12
65989;HTU21D;53592;51.402;6.054;2022-11-20T05:57:08;2.76;76.01
65989;HTU21D;53592;51.402;6.054;2022-11-20T05:59:34;2.76;76.00
65989;HTU21D;53592;51.402;6.054;2022-11-20T06:01:59;2.81;76.18
65989;HTU21D;53592;51.402;6.054;2022-11-20T06:04:25;2.78;75.96
65989;HTU21D;53592;51.402;6.054;2022-11-20T06:06:50;2.75;76.19
65989;HTU21D;53592;51.402;6.054;2022-11-20T06:09:16;2.75;76.28
65989;HTU21D;53592;51.402;6.054;2022-11-20T06:11:41;2.75;76.03
65989;HTU21D;53592;51.402;6.054;2022-11-20T06:14:07;2.76;76.06
65989;HTU21D;53592;51.402;6.054;2022-11-20T06:16:32;2.78;75.83
65989;HTU21D;53592;51.402;6.054;2022-11-20T06:18:57;2.74;75.74
65989;HTU21D;53592;51.402;6.054;2022-11-20T06:21:24;2.76;76.01
65989;HTU21D;53592;51.402;6.054;2022-11-20T06:23:52;2.75;75.74
65989;HTU21D;53592;51.402;6.054;2022-11-20T06:26:23;2.72;76.18
65989;HTU21D;53592;51.402;6.054;2022-11-20T06:28:49;2.72;76.01
65989;HTU21D;53592;51.402;6.054;2022-11-20T06:31:18;2.68;76.17
65989;HTU21D;53592;51.402;6.054;2022-11-20T06:33:44;2.61;76.34
65989;HTU21D;53592;51.402;6.054;2022-11-20T06:36:12;2.61;75.87
65989;HTU21D;53592;51.402;6.054;2022-11-20T06:38:39;2.60;76.41
65989;HTU21D;53592;51.402;6.054;2022-11-20T06:41:07;2.58;76.41
65989;HTU21D;53592;51.402;6.054;2022-11-20T06:43:35;2.59;76.62
65989;HTU21D;53592;51.402;6.054;2022-11-20T06:46:00;2.62;76.73
65989;HTU21D;53592;51.402;6.054;2022-11-20T06:48:28;2.65;76.73
65989;HTU21D;53592;51.402;6.054;2022-11-20T06:50:54;2.65;77.06
65989;HTU21D;53592;51.402;6.054;2022-11-20T06:53:22;2.68;77.05
65989;HTU21D;53592;51.402;6.054;2022-11-20T06:55:48;2.68;77.00
65989;HTU21D;53592;51.402;6.054;2022-11-20T06:58:15;2.65;77.14
65989;HTU21D;53592;51.402;6.054;2022-11-20T07:00:41;2.62;77.20
65989;HTU21D;53592;51.402;6.054;2022-11-20T07:03:09;2.58;77.37
65989;HTU21D;53592;51.402;6.054;2022-11-20T07:05:35;2.57;77.60
65989;HTU21D;53592;51.402;6.054;2022-11-20T07:08:01;2.58;77.66
65989;HTU21D;53592;51.402;6.054;2022-11-20T07:10:27;2.61;77.86
65989;HTU21D;53592;51.402;6.054;2022-11-20T07:12:53;2.66;77.79
65989;HTU21D;53592;51.402;6.054;2022-11-20T07:15:20;2.70;78.08
65989;HTU21D;53592;51.402;6.054;2022-11-20T07:17:46;2.83;78.37
65989;HTU21D;53592;51.402;6.054;2022-11-20T07:20:12;2.78;77.80
65989;HTU21D;53592;51.402;6.054;2022-11-20T07:22:38;2.65;78.06
65989;HTU21D;53592;51.402;6.054;2022-11-20T07:25:03;2.66;78.69
65989;HTU21D;53592;51.402;6.054;2022-11-20T07:27:29;2.64;78.63
65989;HTU21D;53592;51.402;6.054;2022-11-20T07:29:55;2.67;78.95
65989;HTU21D;53592;51.402;6.054;2022-11-20T07:32:21;2.68;78.59
65989;HTU21D;53592;51.402;6.054;2022-11-20T07:34:46;2.71;79.08
65989;HTU21D;53592;51.402;6.054;2022-11-20T07:37:13;2.76;79.45
65989;HTU21D;53592;51.402;6.054;2022-11-20T07:39:38;2.74;78.44
65989;HTU21D;53592;51.402;6.054;2022-11-20T07:42:04;2.70;78.98
65989;HTU21D;53592;51.402;6.054;2022-11-20T07:44:29;2.74;79.14
65989;HTU21D;53592;51.402;6.054;2022-11-20T07:46:54;2.76;79.13
65989;HTU21D;53592;51.402;6.054;2022-11-20T07:49:20;2.82;79.04
65989;HTU21D;53592;51.402;6.054;2022-11-20T07:51:45;2.85;79.08
65989;HTU21D;53592;51.402;6.054;2022-11-20T07:54:11;2.93;79.40
65989;HTU21D;53592;51.402;6.054;2022-11-20T07:56:36;2.99;79.48
65989;HTU21D;53592;51.402;6.054;2022-11-20T07:59:03;3.03;79.25
65989;HTU21D;53592;51.402;6.054;2022-11-20T08:01:29;3.06;79.22
65989;HTU21D;53592;51.402;6.054;2022-11-20T08:03:54;3.05;78.95
65989;HTU21D;53592;51.402;6.054;2022-11-20T08:06:19;3.10;79.27
65989;HTU21D;53592;51.402;6.054;2022-11-20T08:08:45;3.15;79.24
65989;HTU21D;53592;51.402;6.054;2022-11-20T08:11:11;3.21;79.17
65989;HTU21D;53592;51.402;6.054;2022-11-20T08:13:55;3.27;78.47
65989;HTU21D;53592;51.402;6.054;2022-11-20T08:16:49;3.28;78.68
65989;HTU21D;53592;51.402;6.054;2022-11-20T08:19:17;3.34;79.24
65989;HTU21D;53592;51.402;6.054;2022-11-20T08:21:43;3.38;79.19
65989;HTU21D;53592;51.402;6.054;2022-11-20T08:24:10;3.42;78.95
65989;HTU21D;53592;51.402;6.054;2022-11-20T08:26:37;3.43;78.88
65989;HTU21D;53592;51.402;6.054;2022-11-20T08:29:03;3.46;78.95
65989;HTU21D;53592;51.402;6.054;2022-11-20T08:31:29;3.53;78.95
65989;HTU21D;53592;51.402;6.054;2022-11-20T08:33:56;3.54;78.86
65989;HTU21D;53592;51.402;6.054;2022-11-20T08:36:23;3.62;78.91
65989;HTU21D;53592;51.402;6.054;2022-11-20T08:38:53;3.74;78.84
65989;HTU21D;53592;51.402;6.054;2022-11-20T08:41:20;3.86;78.71
65989;HTU21D;53592;51.402;6.054;2022-11-20T08:43:50;3.83;78.77
65989;HTU21D;53592;51.402;6.054;2022-11-20T08:46:17;3.85;78.96
65989;HTU21D;53592;51.402;6.054;2022-11-20T08:48:42;3.94;78.49
65989;HTU21D;53592;51.402;6.054;2022-11-20T08:51:08;3.89;78.32
65989;HTU21D;53592;51.402;6.054;2022-11-20T08:53:34;3.87;78.15
65989;HTU21D;53592;51.402;6.054;2022-11-20T08:55:59;3.85;78.49
65989;HTU21D;53592;51.402;6.054;2022-11-20T08:58:25;3.93;78.12
65989;HTU21D;53592;51.402;6.054;2022-11-20T09:00:51;3.89;77.90
65989;HTU21D;53592;51.402;6.054;2022-11-20T09:03:17;3.92;78.17
65989;HTU21D;53592;51.402;6.054;2022-11-20T09:05:42;3.92;78.04
65989;HTU21D;53592;51.402;6.054;2022-11-20T09:08:08;3.94;78.27
65989;HTU21D;53592;51.402;6.054;2022-11-20T09:10:34;4.01;78.12
65989;HTU21D;53592;51.402;6.054;2022-11-20T09:13:00;4.09;77.70
65989;HTU21D;53592;51.402;6.054;2022-11-20T09:15:26;4.09;77.51
65989;HTU21D;53592;51.402;6.054;2022-11-20T09:17:55;4.09;77.69
65989;HTU21D;53592;51.402;6.054;2022-11-20T09:20:22;4.08;78.17
65989;HTU21D;53592;51.402;6.054;2022-11-20T09:22:47;4.21;77.39
65989;HTU21D;53592;51.402;6.054;2022-11-20T09:25:13;4.15;77.31
65989;HTU21D;53592;51.402;6.054;2022-11-20T09:27:39;4.14;77.60
65989;HTU21D;53592;51.402;6.054;2022-11-20T09:30:07;4.17;77.63
65989;HTU21D;53592;51.402;6.054;2022-11-20T09:32:32;4.23;77.37
65989;HTU21D;53592;51.402;6.054;2022-11-20T09:34:58;4.22;77.82
65989;HTU21D;53592;51.402;6.054;2022-11-20T09:37:23;4.30;78.01
65989;HTU21D;53592;51.402;6.054;2022-11-20T09:39:49;4.34;77.71
65989;HTU21D;53592;51.402;6.054;2022-11-20T09:42:27;4.34;78.04
65989;HTU21D;53592;51.402;6.054;2022-11-20T09:48:12;4.56;77.82
65989;HTU21D;53592;51.402;6.054;2022-11-20T09:50:48;4.49;77.66
65989;HTU21D;53592;51.402;6.054;2022-11-20T09:56:21;4.56;78.37
65989;HTU21D;53592;51.402;6.054;2022-11-20T09:58:57;4.63;78.40
65989;HTU21D;53592;51.402;6.054;2022-11-20T10:01:30;4.72;78.33
65989;HTU21D;53592;51.402;6.054;2022-11-20T10:04:08;4.71;78.23
65989;HTU21D;53592;51.402;6.054;2022-11-20T10:06:56;4.68;78.42
65989;HTU21D;53592;51.402;6.054;2022-11-20T10:09:33;4.73;78.50
65989;HTU21D;53592;51.402;6.054;2022-11-20T10:13:01;4.83;78.34
65989;HTU21D;53592;51.402;6.054;2022-11-20T10:23:44;4.87;78.43
65989;HTU21D;53592;51.402;6.054;2022-11-20T10:26:50;4.90;78.83
65989;HTU21D;53592;51.402;6.054;2022-11-20T10:29:15;4.98;78.96
65989;HTU21D;53592;51.402;6.054;2022-11-20T10:31:56;5.04;78.18
65989;HTU21D;53592;51.402;6.054;2022-11-20T10:37:17;4.98;78.67
65989;HTU21D;53592;51.402;6.054;2022-11-20T10:42:52;5.01;79.14
65989;HTU21D;53592;51.402;6.054;2022-11-20T10:45:40;5.05;79.24
65989;HTU21D;53592;51.402;6.054;2022-11-20T10:48:19;5.05;79.30
65989;HTU21D;53592;51.402;6.054;2022-11-20T10:53:47;5.08;79.29
65989;HTU21D;53592;51.402;6.054;2022-11-20T10:59:15;5.18;79.52
65989;HTU21D;53592;51.402;6.054;2022-11-20T11:01:48;5.27;79.09
65989;HTU21D;53592;51.402;6.054;2022-11-20T11:04:30;5.26;79.29
65989;HTU21D;53592;51.402;6.054;2022-11-20T11:09:55;5.35;79.41
65989;HTU21D;53592;51.402;6.054;2022-11-20T11:12:24;5.38;79.78
65989;HTU21D;53592;51.402;6.054;2022-11-20T11:14:52;5.46;79.66
65989;HTU21D;53592;51.402;6.054;2022-11-20T11:17:28;5.54;79.78
65989;HTU21D;53592;51.402;6.054;2022-11-20T11:20:03;5.64;79.29
65989;HTU21D;53592;51.402;6.054;2022-11-20T11:22:34;5.63;78.56
65989;HTU21D;53592;51.402;6.054;2022-11-20T11:25:39;5.61;79.11
65989;HTU21D;53592;51.402;6.054;2022-11-20T11:28:20;5.65;78.86
65989;HTU21D;53592;51.402;6.054;2022-11-20T11:30:46;5.71;78.80
65989;HTU21D;53592;51.402;6.054;2022-11-20T11:33:24;5.72;78.70
65989;HTU21D;53592;51.402;6.054;2022-11-20T11:35:55;5.67;78.79
65989;HTU21D;53592;51.402;6.054;2022-11-20T11:38:36;5.69;79.20
65989;HTU21D;53592;51.402;6.054;2022-11-20T11:41:05;5.75;78.95
65989;HTU21D;53592;51.402;6.054;2022-11-20T11:43:34;5.72;78.85
65989;HTU21D;53592;51.402;6.054;2022-11-20T11:46:36;5.74;79.29
65989;HTU21D;53592;51.402;6.054;2022-11-20T11:51:58;5.81;78.58
65989;HTU21D;53592;51.402;6.054;2022-11-20T11:54:50;5.87;78.60
65989;HTU21D;53592;51.402;6.054;2022-11-20T12:00:25;6.01;78.15
65989;HTU21D;53592;51.402;6.054;2022-11-20T12:03:08;5.90;78.26
65989;HTU21D;53592;51.402;6.054;2022-11-20T12:05:50;5.89;78.92
65989;HTU21D;53592;51.402;6.054;2022-11-20T12:08:30;5.96;79.08
65989;HTU21D;53592;51.402;6.054;2022-11-20T12:11:10;6.06;79.01
65989;HTU21D;53592;51.402;6.054;2022-11-20T12:13:55;6.07;78.73
65989;HTU21D;53592;51.402;6.054;2022-11-20T12:16:24;6.00;78.79
65989;HTU21D;53592;51.402;6.054;2022-11-20T12:18:52;6.02;79.25
65989;HTU21D;53592;51.402;6.054;2022-11-20T12:21:27;6.06;79.14
65989;HTU21D;53592;51.402;6.054;2022-11-20T12:29:51;6.07;79.20
65989;HTU21D;53592;51.402;6.054;2022-11-20T12:32:56;6.14;78.92
65989;HTU21D;53592;51.402;6.054;2022-11-20T12:36:04;6.14;79.14
65989;HTU21D;53592;51.402;6.054;2022-11-20T12:50:21;6.02;81.14
65989;HTU21D;53592;51.402;6.054;2022-11-20T12:52:59;6.13;81.10
65989;HTU21D;53592;51.402;6.054;2022-11-20T12:55:32;6.15;81.12
65989;HTU21D;53592;51.402;6.054;2022-11-20T12:58:10;6.15;80.94
65989;HTU21D;53592;51.402;6.054;2022-11-20T13:00:47;6.07;81.36
65989;HTU21D;53592;51.402;6.054;2022-11-20T13:03:44;6.08;81.54
65989;HTU21D;53592;51.402;6.054;2022-11-20T13:06:18;6.08;81.70
65989;HTU21D;53592;51.402;6.054;2022-11-20T13:08:55;6.10;81.67
65989;HTU21D;53592;51.402;6.054;2022-11-20T13:14:47;6.09;82.13
65989;HTU21D;53592;51.402;6.054;2022-11-20T13:20:15;6.13;82.42
65989;HTU21D;53592;51.402;6.054;2022-11-20T13:25:35;6.19;82.13
65989;HTU21D;53592;51.402;6.054;2022-11-20T13:28:27;6.20;82.32
65989;HTU21D;53592;51.402;6.054;2022-11-20T13:30:55;6.23;82.49
65989;HTU21D;53592;51.402;6.054;2022-11-20T13:33:36;6.20;82.74
65989;HTU21D;53592;51.402;6.054;2022-11-20T13:36:06;6.14;83.36
65989;HTU21D;53592;51.402;6.054;2022-11-20T13:38:49;6.20;83.39
65989;HTU21D;53592;51.402;6.054;2022-11-20T13:44:44;6.23;83.34
65989;HTU21D;53592;51.402;6.054;2022-11-20T13:46:45;6.28;82.97
65989;HTU21D;53592;51.402;6.054;2022-11-20T13:49:25;6.26;83.26
65989;HTU21D;53592;51.402;6.054;2022-11-20T13:52:03;6.31;83.14
65989;HTU21D;53592;51.402;6.054;2022-11-20T14:02:38;6.31;83.81
65989;HTU21D;53592;51.402;6.054;2022-11-20T14:05:05;6.30;84.03
65989;HTU21D;53592;51.402;6.054;2022-11-20T14:07:37;6.35;83.87
65989;HTU21D;53592;51.402;6.054;2022-11-20T14:10:05;6.37;83.78
65989;HTU21D;53592;51.402;6.054;2022-11-20T14:12:33;6.35;83.87
65989;HTU21D;53592;51.402;6.054;2022-11-20T14:15:00;6.37;83.90
65989;HTU21D;53592;51.402;6.054;2022-11-20T14:17:35;6.31;84.19
65989;HTU21D;53592;51.402;6.054;2022-11-20T14:20:11;6.37;84.09
65989;HTU21D;53592;51.402;6.054;2022-11-20T14:22:37;6.35;84.20
65989;HTU21D;53592;51.402;6.054;2022-11-20T14:25:19;6.35;84.24
65989;HTU21D;53592;51.402;6.054;2022-11-20T14:27:51;6.41;84.08
65989;HTU21D;53592;51.402;6.054;2022-11-20T14:30:26;6.43;84.18
65989;HTU21D;53592;51.402;6.054;2022-11-20T14:33:00;6.43;84.10
65989;HTU21D;53592;51.402;6.054;2022-11-20T14:35:29;6.42;84.52
65989;HTU21D;53592;51.402;6.054;2022-11-20T14:37:56;6.48;84.48
65989;HTU21D;53592;51.402;6.054;2022-11-20T14:42:51;6.52;84.34
65989;HTU21D;53592;51.402;6.054;2022-11-20T14:45:18;6.52;84.47
65989;HTU21D;53592;51.402;6.054;2022-11-20T14:47:44;6.50;84.45
65989;HTU21D;53592;51.402;6.054;2022-11-20T14:50:26;6.60;83.97
65989;HTU21D;53592;51.402;6.054;2022-11-20T14:52:56;6.68;83.71
65989;HTU21D;53592;51.402;6.054;2022-11-20T14:55:34;6.58;84.08
65989;HTU21D;53592;51.402;6.054;2022-11-20T14:58:21;6.56;84.39
65989;HTU21D;53592;51.402;6.054;2022-11-20T15:01:05;6.56;84.76
65989;HTU21D;53592;51.402;6.054;2022-11-20T15:03:40;6.60;84.75
65989;HTU21D;53592;51.402;6.054;2022-11-20T15:06:07;6.59;84.86
65989;HTU21D;53592;51.402;6.054;2022-11-20T15:08:36;6.58;85.09
65989;HTU21D;53592;51.402;6.054;2022-11-20T15:11:02;6.57;85.35
65989;HTU21D;53592;51.402;6.054;2022-11-20T15:13:33;6.63;85.35
65989;HTU21D;53592;51.402;6.054;2022-11-20T15:16:08;6.60;85.66
65989;HTU21D;53592;51.402;6.054;2022-11-20T15:18:40;6.63;85.68
65989;HTU21D;53592;51.402;6.054;2022-11-20T15:21:18;6.67;85.80
65989;HTU21D;53592;51.402;6.054;2022-11-20T15:23:44;6.69;86.00
65989;HTU21D;53592;51.402;6.054;2022-11-20T15:26:15;6.68;86.17
65989;HTU21D;53592;51.402;6.054;2022-11-20T15:28:44;6.65;86.03
65989;HTU21D;53592;51.402;6.054;2022-11-20T15:31:15;6.66;86.35
65989;HTU21D;53592;51.402;6.054;2022-11-20T15:33:41;6.67;86.19
65989;HTU21D;53592;51.402;6.054;2022-11-20T15:36:08;6.60;86.54
65989;HTU21D;53592;51.402;6.054;2022-11-20T15:38:34;6.56;86.86
65989;HTU21D;53592;51.402;6.054;2022-11-20T15:40:59;6.56;86.96
65989;HTU21D;53592;51.402;6.054;2022-11-20T15:43:25;6.57;87.00
65989;HTU21D;53592;51.402;6.054;2022-11-20T15:45:53;6.57;87.12
65989;HTU21D;53592;51.402;6.054;2022-11-20T15:48:24;6.60;87.02
65989;HTU21D;53592;51.402;6.054;2022-11-20T15:51:03;6.64;87.15
65989;HTU21D;53592;51.402;6.054;2022-11-20T15:53:31;6.66;87.02
65989;HTU21D;53592;51.402;6.054;2022-11-20T15:55:57;6.67;87.06
65989;HTU21D;53592;51.402;6.054;2022-11-20T15:58:22;6.66;87.01
65989;HTU21D;53592;51.402;6.054;2022-11-20T16:00:50;6.66;87.12
65989;HTU21D;53592;51.402;6.054;2022-11-20T16:03:17;6.64;87.25
65989;HTU21D;53592;51.402;6.054;2022-11-20T16:05:43;6.66;87.32
65989;HTU21D;53592;51.402;6.054;2022-11-20T16:08:09;6.68;87.26
65989;HTU21D;53592;51.402;6.054;2022-11-20T16:10:35;6.63;87.38
65989;HTU21D;53592;51.402;6.054;2022-11-20T16:13:02;6.71;87.35
65989;HTU21D;53592;51.402;6.054;2022-11-20T16:15:51;6.63;87.54
65989;HTU21D;53592;51.402;6.054;2022-11-20T16:18:20;6.63;87.61
65989;HTU21D;53592;51.402;6.054;2022-11-20T16:20:48;6.67;87.64
65989;HTU21D;53592;51.402;6.054;2022-11-20T16:23:14;6.68;87.54
65989;HTU21D;53592;51.402;6.054;2022-11-20T16:25:42;6.68;87.68
65989;HTU21D;53592;51.402;6.054;2022-11-20T16:28:08;6.63;88.06
65989;HTU21D;53592;51.402;6.054;2022-11-20T16:30:34;6.65;88.06
65989;HTU21D;53592;51.402;6.054;2022-11-20T16:33:02;6.61;88.16
65989;HTU21D;53592;51.402;6.054;2022-11-20T16:35:30;6.67;88.31
65989;HTU21D;53592;51.402;6.054;2022-11-20T16:37:57;6.70;88.19
65989;HTU21D;53592;51.402;6.054;2022-11-20T16:40:24;6.69;88.16
65989;HTU21D;53592;51.402;6.054;2022-11-20T16:42:50;6.74;88.14
65989;HTU21D;53592;51.402;6.054;2022-11-20T16:45:17;6.75;88.09
65989;HTU21D;53592;51.402;6.054;2022-11-20T16:47:43;6.72;88.49
65989;HTU21D;53592;51.402;6.054;2022-11-20T16:50:09;6.71;88.62
65989;HTU21D;53592;51.402;6.054;2022-11-20T16:52:35;6.73;88.57
65989;HTU21D;53592;51.402;6.054;2022-11-20T16:55:01;6.73;88.62
65989;HTU21D;53592;51.402;6.054;2022-11-20T16:57:31;6.74;88.72
65989;HTU21D;53592;51.402;6.054;2022-11-20T16:59:58;6.82;88.64
65989;HTU21D;53592;51.402;6.054;2022-11-20T17:02:25;6.93;88.06